»·PEaware :: AAL419 KASE-KDEN

AAL419 :: KASE-KDEN

FLIGHT INFORMATION

Flight Status: Arrived
Operator:
American Airlines
More flights by this operator :: More flights under this callsign
Pilot: Nils Z. (23708)
Aircraft: BOEING 737-800
(B738)
More flights by this aircraft type
Origin: KASE Aspen-Pitkin Co/Sardy
United States
Destination: KDEN Denver Intl
United States
More flights between these airports :: More routes between these airports
Route: +LINDZ9 DBL JNETT CREDE3
File this flight plan on PilotEdge
Remarks: RMK / SIMBRIEF
Altitude:
(Current/Filed)
25,000ft
Speed:
(Current/Filed)
392kts
Departed: 05-Mar-19 01:39 PM
Arrived: 05-Mar-19 02:12 PM
Distance/Time
Traveled:
108nm/0:33
Distance/Time
To Go:
Arrived

Flight Plot

Page will automatically refresh every two minutes.

Flight plan parsing failed; only flown route is shown


Map Options




Map Legend


Flown Route
Filed Route
Departure Airport
Arrival Airport
Navaid (VOR, NDB)
Fix

Horizontal Profiles

Position Reports

Time Latitude Longitude Heading Altitude Ground
Speed
05-Mar-19 13:22 39.218260 -106.864112 70 7843ft 0kts
05-Mar-19 13:23 39.218260 -106.864112 70 7843ft 0kts
05-Mar-19 13:24 39.218260 -106.864112 70 7843ft 0kts
05-Mar-19 13:25 39.218260 -106.864113 70 7843ft 0kts
05-Mar-19 13:26 39.218260 -106.864113 70 7843ft 0kts
05-Mar-19 13:27 39.218260 -106.864113 70 7843ft 0kts
05-Mar-19 13:28 39.218260 -106.864113 70 7843ft 0kts
05-Mar-19 13:29 39.218260 -106.864113 70 7843ft 0kts
05-Mar-19 13:30 39.218260 -106.864113 70 7843ft 0kts
05-Mar-19 13:31 39.218131 -106.864584 70 7843ft 2kts
05-Mar-19 13:32 39.218254 -106.865302 146 7843ft 2kts
05-Mar-19 13:33 39.218398 -106.865389 160 7843ft 0kts
05-Mar-19 13:34 39.218398 -106.865389 160 7843ft 0kts
05-Mar-19 13:35 39.217587 -106.865012 159 7843ft 12kts
05-Mar-19 13:36 39.213258 -106.862911 159 7843ft 2kts
05-Mar-19 13:37 39.212036 -106.862581 209 7842ft 9kts
05-Mar-19 13:38 39.217847 -106.866344 338 7843ft 98kts
05-Mar-19 13:39 39.260605 -106.884792 340 9004ft 197kts
05-Mar-19 13:40 39.290996 -106.954282 282 10340ft 277kts
05-Mar-19 13:41 39.317076 -107.056557 293 14002ft 305kts
05-Mar-19 13:42 39.394654 -107.074573 33 17673ft 375kts
05-Mar-19 13:43 39.430777 -106.936951 78 20620ft 428kts
05-Mar-19 13:44 39.415475 -106.778207 104 23071ft 457kts
05-Mar-19 13:45 39.381060 -106.614669 104 25189ft 484kts
05-Mar-19 13:46 39.344185 -106.440806 103 25213ft 497kts
05-Mar-19 13:47 39.307735 -106.269984 104 25195ft 497kts
05-Mar-19 13:48 39.270385 -106.095733 104 25200ft 504kts
05-Mar-19 13:49 39.233373 -105.924745 104 25202ft 484kts
05-Mar-19 13:50 39.242817 -105.760302 44 25121ft 445kts
05-Mar-19 13:51 39.324253 -105.648205 45 25105ft 438kts
05-Mar-19 13:52 39.385016 -105.504577 51 23974ft 465kts
05-Mar-19 13:53 39.453247 -105.368830 46 20328ft 424kts
05-Mar-19 13:54 39.516138 -105.249672 47 18043ft 376kts
05-Mar-19 13:55 39.572718 -105.142023 47 16953ft 348kts
05-Mar-19 13:56 39.627693 -105.037224 47 16966ft 347kts
05-Mar-19 13:57 39.681403 -104.934008 48 16018ft 341kts
05-Mar-19 13:58 39.748467 -104.855867 13 14129ft 313kts
05-Mar-19 13:59 39.830601 -104.840587 354 12624ft 288kts
05-Mar-19 14:00 39.909154 -104.839503 355 11184ft 269kts
05-Mar-19 14:01 39.981716 -104.839727 357 9825ft 246kts
05-Mar-19 14:02 40.047316 -104.840398 358 9031ft 227kts
05-Mar-19 14:03 40.111245 -104.839945 358 9017ft 229kts
05-Mar-19 14:04 40.154587 -104.801414 108 8910ft 220kts
05-Mar-19 14:05 40.121071 -104.736235 127 7993ft 213kts
05-Mar-19 14:06 40.074138 -104.691109 147 7024ft 201kts
05-Mar-19 14:07 40.022661 -104.668200 190 7102ft 205kts
05-Mar-19 14:08 39.971663 -104.682500 188 6762ft 172kts
05-Mar-19 14:09 39.928990 -104.686240 182 6107ft 146kts
05-Mar-19 14:10 39.889518 -104.686920 179 5442ft 118kts
05-Mar-19 14:11 39.877503 -104.686459 161 5442ft 9kts
05-Mar-19 14:12 39.874733 -104.683829 151 5442ft 9kts
05-Mar-19 14:13 39.869914 -104.683809 181 5442ft 19kts
05-Mar-19 14:14 39.864891 -104.683862 181 5442ft 16kts
05-Mar-19 14:15 39.864773 -104.680400 90 5442ft 11kts
05-Mar-19 14:16 39.864524 -104.677646 141 5442ft 7kts
05-Mar-19 14:17 39.863579 -104.677338 177 5442ft 0kts
05-Mar-19 14:18 39.863579 -104.677338 177 5442ft 0kts

Navigation Log

Ident Type
Flight plan parsing failed, navigation log unavailable